sensor_id;sensor_type;location;lat;lon;timestamp;P1;durP1;ratioP1;P2;durP2;ratioP2
32228;SDS011;18717;48.034;11.186;2024-03-07T00:01:23;20.25;;;15.20;;
32228;SDS011;18717;48.034;11.186;2024-03-07T00:03:53;20.95;;;14.35;;
32228;SDS011;18717;48.034;11.186;2024-03-07T00:06:20;20.48;;;15.05;;
32228;SDS011;18717;48.034;11.186;2024-03-07T00:08:50;18.88;;;15.30;;
32228;SDS011;18717;48.034;11.186;2024-03-07T00:11:18;17.73;;;14.45;;
32228;SDS011;18717;48.034;11.186;2024-03-07T00:13:45;21.35;;;14.88;;
32228;SDS011;18717;48.034;11.186;2024-03-07T00:16:13;18.75;;;14.98;;
32228;SDS011;18717;48.034;11.186;2024-03-07T00:18:41;19.58;;;14.55;;
32228;SDS011;18717;48.034;11.186;2024-03-07T00:21:09;17.70;;;14.02;;
32228;SDS011;18717;48.034;11.186;2024-03-07T00:23:36;21.02;;;15.48;;
32228;SDS011;18717;48.034;11.186;2024-03-07T00:26:06;20.33;;;15.27;;
32228;SDS011;18717;48.034;11.186;2024-03-07T00:28:34;18.92;;;14.15;;
32228;SDS011;18717;48.034;11.186;2024-03-07T00:31:05;21.83;;;15.10;;
32228;SDS011;18717;48.034;11.186;2024-03-07T00:33:35;24.00;;;16.77;;
32228;SDS011;18717;48.034;11.186;2024-03-07T00:36:23;23.17;;;15.80;;
32228;SDS011;18717;48.034;11.186;2024-03-07T00:38:50;19.05;;;14.93;;
32228;SDS011;18717;48.034;11.186;2024-03-07T00:41:20;19.55;;;14.57;;
32228;SDS011;18717;48.034;11.186;2024-03-07T00:43:47;19.35;;;14.35;;
32228;SDS011;18717;48.034;11.186;2024-03-07T00:46:16;22.35;;;15.80;;
32228;SDS011;18717;48.034;11.186;2024-03-07T00:48:44;19.52;;;15.75;;
32228;SDS011;18717;48.034;11.186;2024-03-07T00:51:12;17.70;;;14.45;;
32228;SDS011;18717;48.034;11.186;2024-03-07T00:53:42;20.73;;;15.63;;
32228;SDS011;18717;48.034;11.186;2024-03-07T00:56:09;21.17;;;14.82;;
32228;SDS011;18717;48.034;11.186;2024-03-07T00:58:39;21.50;;;15.55;;
32228;SDS011;18717;48.034;11.186;2024-03-07T01:01:07;21.95;;;15.95;;
32228;SDS011;18717;48.034;11.186;2024-03-07T01:03:35;20.67;;;15.45;;
32228;SDS011;18717;48.034;11.186;2024-03-07T01:06:03;19.40;;;14.57;;
32228;SDS011;18717;48.034;11.186;2024-03-07T01:08:31;18.88;;;15.07;;
32228;SDS011;18717;48.034;11.186;2024-03-07T01:11:01;21.00;;;15.10;;
32228;SDS011;18717;48.034;11.186;2024-03-07T01:13:35;19.90;;;15.80;;
32228;SDS011;18717;48.034;11.186;2024-03-07T01:16:05;20.13;;;14.48;;
32228;SDS011;18717;48.034;11.186;2024-03-07T01:18:33;21.90;;;15.05;;
32228;SDS011;18717;48.034;11.186;2024-03-07T01:21:01;19.95;;;14.73;;
32228;SDS011;18717;48.034;11.186;2024-03-07T01:23:29;21.33;;;15.05;;
32228;SDS011;18717;48.034;11.186;2024-03-07T01:25:56;16.50;;;13.50;;
32228;SDS011;18717;48.034;11.186;2024-03-07T01:28:24;21.00;;;16.38;;
32228;SDS011;18717;48.034;11.186;2024-03-07T01:30:52;21.55;;;15.55;;
32228;SDS011;18717;48.034;11.186;2024-03-07T01:33:22;23.15;;;15.57;;
32228;SDS011;18717;48.034;11.186;2024-03-07T01:35:49;24.13;;;15.65;;
32228;SDS011;18717;48.034;11.186;2024-03-07T01:38:17;18.70;;;15.30;;
32228;SDS011;18717;48.034;11.186;2024-03-07T01:40:45;20.85;;;14.70;;
32228;SDS011;18717;48.034;11.186;2024-03-07T01:43:13;22.25;;;15.32;;
32228;SDS011;18717;48.034;11.186;2024-03-07T01:45:41;22.17;;;15.75;;
32228;SDS011;18717;48.034;11.186;2024-03-07T01:48:09;20.73;;;15.43;;
32228;SDS011;18717;48.034;11.186;2024-03-07T01:50:38;24.42;;;16.10;;
32228;SDS011;18717;48.034;11.186;2024-03-07T01:53:06;22.52;;;15.30;;
32228;SDS011;18717;48.034;11.186;2024-03-07T01:55:36;24.58;;;17.92;;
32228;SDS011;18717;48.034;11.186;2024-03-07T01:58:04;25.58;;;16.60;;
32228;SDS011;18717;48.034;11.186;2024-03-07T02:00:33;22.95;;;15.43;;
32228;SDS011;18717;48.034;11.186;2024-03-07T02:03:01;22.27;;;15.13;;
32228;SDS011;18717;48.034;11.186;2024-03-07T02:05:28;23.88;;;16.95;;
32228;SDS011;18717;48.034;11.186;2024-03-07T02:07:58;19.88;;;14.85;;
32228;SDS011;18717;48.034;11.186;2024-03-07T02:10:28;20.17;;;15.05;;
32228;SDS011;18717;48.034;11.186;2024-03-07T02:12:56;21.00;;;15.52;;
32228;SDS011;18717;48.034;11.186;2024-03-07T02:15:23;21.35;;;15.07;;
32228;SDS011;18717;48.034;11.186;2024-03-07T02:17:51;25.52;;;16.90;;
32228;SDS011;18717;48.034;11.186;2024-03-07T02:20:19;21.58;;;16.38;;
32228;SDS011;18717;48.034;11.186;2024-03-07T02:22:50;23.90;;;16.08;;
32228;SDS011;18717;48.034;11.186;2024-03-07T02:25:18;27.73;;;17.17;;
32228;SDS011;18717;48.034;11.186;2024-03-07T02:27:46;25.15;;;15.77;;
32228;SDS011;18717;48.034;11.186;2024-03-07T02:30:14;26.40;;;16.65;;
32228;SDS011;18717;48.034;11.186;2024-03-07T02:32:43;27.55;;;16.77;;
32228;SDS011;18717;48.034;11.186;2024-03-07T02:35:15;22.10;;;15.38;;
32228;SDS011;18717;48.034;11.186;2024-03-07T02:37:44;27.73;;;18.17;;
32228;SDS011;18717;48.034;11.186;2024-03-07T02:40:14;25.55;;;16.23;;
32228;SDS011;18717;48.034;11.186;2024-03-07T02:42:42;29.75;;;17.95;;
32228;SDS011;18717;48.034;11.186;2024-03-07T02:45:10;24.40;;;17.02;;
32228;SDS011;18717;48.034;11.186;2024-03-07T02:47:41;27.23;;;18.23;;
32228;SDS011;18717;48.034;11.186;2024-03-07T02:50:11;26.42;;;16.05;;
32228;SDS011;18717;48.034;11.186;2024-03-07T02:52:38;28.88;;;17.85;;
32228;SDS011;18717;48.034;11.186;2024-03-07T02:55:07;26.52;;;17.35;;
32228;SDS011;18717;48.034;11.186;2024-03-07T02:57:38;31.38;;;19.00;;
32228;SDS011;18717;48.034;11.186;2024-03-07T03:00:07;30.75;;;16.77;;
32228;SDS011;18717;48.034;11.186;2024-03-07T03:02:46;28.75;;;17.90;;
32228;SDS011;18717;48.034;11.186;2024-03-07T03:05:15;30.38;;;19.35;;
32228;SDS011;18717;48.034;11.186;2024-03-07T03:07:45;34.55;;;19.05;;
32228;SDS011;18717;48.034;11.186;2024-03-07T03:10:20;32.85;;;17.60;;
32228;SDS011;18717;48.034;11.186;2024-03-07T03:12:52;30.07;;;18.30;;
32228;SDS011;18717;48.034;11.186;2024-03-07T03:15:21;28.58;;;19.15;;
32228;SDS011;18717;48.034;11.186;2024-03-07T03:17:48;29.30;;;17.55;;
32228;SDS011;18717;48.034;11.186;2024-03-07T03:20:16;26.55;;;17.85;;
32228;SDS011;18717;48.034;11.186;2024-03-07T03:22:52;28.00;;;17.83;;
32228;SDS011;18717;48.034;11.186;2024-03-07T03:25:40;30.35;;;19.88;;
32228;SDS011;18717;48.034;11.186;2024-03-07T03:28:09;31.15;;;19.50;;
32228;SDS011;18717;48.034;11.186;2024-03-07T03:30:37;35.95;;;19.70;;
32228;SDS011;18717;48.034;11.186;2024-03-07T03:33:05;33.90;;;19.48;;
32228;SDS011;18717;48.034;11.186;2024-03-07T03:35:33;32.28;;;19.52;;
32228;SDS011;18717;48.034;11.186;2024-03-07T03:38:01;37.90;;;20.75;;
32228;SDS011;18717;48.034;11.186;2024-03-07T03:40:29;34.10;;;20.48;;
32228;SDS011;18717;48.034;11.186;2024-03-07T03:42:57;36.28;;;20.80;;
32228;SDS011;18717;48.034;11.186;2024-03-07T03:45:26;36.30;;;21.13;;
32228;SDS011;18717;48.034;11.186;2024-03-07T03:47:54;39.60;;;20.52;;
32228;SDS011;18717;48.034;11.186;2024-03-07T03:50:22;33.38;;;20.70;;
32228;SDS011;18717;48.034;11.186;2024-03-07T03:52:50;36.00;;;19.52;;
32228;SDS011;18717;48.034;11.186;2024-03-07T03:55:18;40.45;;;21.73;;
32228;SDS011;18717;48.034;11.186;2024-03-07T03:57:47;47.72;;;22.52;;
32228;SDS011;18717;48.034;11.186;2024-03-07T04:00:16;42.25;;;23.60;;
32228;SDS011;18717;48.034;11.186;2024-03-07T04:02:46;44.33;;;22.88;;
32228;SDS011;18717;48.034;11.186;2024-03-07T04:05:16;52.80;;;23.98;;
32228;SDS011;18717;48.034;11.186;2024-03-07T04:07:44;45.65;;;23.48;;
32228;SDS011;18717;48.034;11.186;2024-03-07T04:10:14;46.35;;;24.50;;
32228;SDS011;18717;48.034;11.186;2024-03-07T04:12:43;47.42;;;25.73;;
32228;SDS011;18717;48.034;11.186;2024-03-07T04:15:11;54.50;;;24.27;;
32228;SDS011;18717;48.034;11.186;2024-03-07T04:17:44;55.70;;;25.48;;
32228;SDS011;18717;48.034;11.186;2024-03-07T04:20:15;55.83;;;27.85;;
32228;SDS011;18717;48.034;11.186;2024-03-07T04:22:45;53.50;;;27.38;;
32228;SDS011;18717;48.034;11.186;2024-03-07T04:25:13;57.13;;;27.88;;
32228;SDS011;18717;48.034;11.186;2024-03-07T04:27:41;54.97;;;26.17;;
32228;SDS011;18717;48.034;11.186;2024-03-07T04:30:09;60.42;;;29.45;;
32228;SDS011;18717;48.034;11.186;2024-03-07T04:32:36;64.03;;;29.98;;
32228;SDS011;18717;48.034;11.186;2024-03-07T04:35:07;58.85;;;29.98;;
32228;SDS011;18717;48.034;11.186;2024-03-07T04:37:37;70.97;;;30.23;;
32228;SDS011;18717;48.034;11.186;2024-03-07T04:40:06;67.97;;;30.73;;
32228;SDS011;18717;48.034;11.186;2024-03-07T04:42:41;78.45;;;35.85;;
32228;SDS011;18717;48.034;11.186;2024-03-07T04:45:10;78.45;;;38.00;;
32228;SDS011;18717;48.034;11.186;2024-03-07T04:47:39;72.70;;;34.47;;
32228;SDS011;18717;48.034;11.186;2024-03-07T04:50:09;84.30;;;39.47;;
32228;SDS011;18717;48.034;11.186;2024-03-07T04:52:37;75.38;;;34.10;;
32228;SDS011;18717;48.034;11.186;2024-03-07T04:55:05;72.10;;;32.22;;
32228;SDS011;18717;48.034;11.186;2024-03-07T04:57:36;65.72;;;33.35;;
32228;SDS011;18717;48.034;11.186;2024-03-07T05:00:05;70.57;;;35.47;;
32228;SDS011;18717;48.034;11.186;2024-03-07T05:02:39;72.30;;;31.90;;
32228;SDS011;18717;48.034;11.186;2024-03-07T05:05:07;66.05;;;31.42;;
32228;SDS011;18717;48.034;11.186;2024-03-07T05:07:36;67.18;;;34.88;;
32228;SDS011;18717;48.034;11.186;2024-03-07T05:10:05;65.22;;;33.85;;
32228;SDS011;18717;48.034;11.186;2024-03-07T05:12:33;66.20;;;31.83;;
32228;SDS011;18717;48.034;11.186;2024-03-07T05:15:03;68.20;;;32.97;;
32228;SDS011;18717;48.034;11.186;2024-03-07T05:17:31;65.63;;;32.15;;
32228;SDS011;18717;48.034;11.186;2024-03-07T05:20:02;73.07;;;33.35;;
32228;SDS011;18717;48.034;11.186;2024-03-07T05:22:33;69.78;;;34.35;;
32228;SDS011;18717;48.034;11.186;2024-03-07T05:25:02;68.03;;;34.55;;
32228;SDS011;18717;48.034;11.186;2024-03-07T05:27:31;72.10;;;34.47;;
32228;SDS011;18717;48.034;11.186;2024-03-07T05:29:59;71.15;;;34.95;;
32228;SDS011;18717;48.034;11.186;2024-03-07T05:32:28;69.60;;;34.85;;
32228;SDS011;18717;48.034;11.186;2024-03-07T05:34:57;68.35;;;33.90;;
32228;SDS011;18717;48.034;11.186;2024-03-07T05:37:24;74.60;;;34.08;;
32228;SDS011;18717;48.034;11.186;2024-03-07T05:39:53;72.90;;;32.72;;
32228;SDS011;18717;48.034;11.186;2024-03-07T05:42:22;71.97;;;35.13;;
32228;SDS011;18717;48.034;11.186;2024-03-07T05:44:51;70.18;;;35.25;;
32228;SDS011;18717;48.034;11.186;2024-03-07T05:47:20;71.80;;;35.72;;
32228;SDS011;18717;48.034;11.186;2024-03-07T05:49:48;70.63;;;35.25;;
32228;SDS011;18717;48.034;11.186;2024-03-07T05:52:16;74.82;;;36.17;;
32228;SDS011;18717;48.034;11.186;2024-03-07T05:54:44;76.55;;;36.63;;
32228;SDS011;18717;48.034;11.186;2024-03-07T05:57:12;72.90;;;37.13;;
32228;SDS011;18717;48.034;11.186;2024-03-07T05:59:41;73.57;;;36.00;;
32228;SDS011;18717;48.034;11.186;2024-03-07T06:02:09;74.82;;;35.40;;
32228;SDS011;18717;48.034;11.186;2024-03-07T06:04:39;72.63;;;36.90;;
32228;SDS011;18717;48.034;11.186;2024-03-07T06:07:06;75.18;;;37.42;;
32228;SDS011;18717;48.034;11.186;2024-03-07T06:09:34;76.07;;;36.67;;
32228;SDS011;18717;48.034;11.186;2024-03-07T06:12:03;79.60;;;38.90;;
32228;SDS011;18717;48.034;11.186;2024-03-07T06:14:49;70.75;;;34.97;;
32228;SDS011;18717;48.034;11.186;2024-03-07T06:17:17;73.68;;;36.25;;
32228;SDS011;18717;48.034;11.186;2024-03-07T06:19:48;80.43;;;36.88;;
32228;SDS011;18717;48.034;11.186;2024-03-07T06:22:15;77.20;;;37.28;;
32228;SDS011;18717;48.034;11.186;2024-03-07T06:24:43;72.80;;;35.63;;
32228;SDS011;18717;48.034;11.186;2024-03-07T06:27:11;75.38;;;35.97;;
32228;SDS011;18717;48.034;11.186;2024-03-07T06:29:42;81.25;;;36.45;;
32228;SDS011;18717;48.034;11.186;2024-03-07T06:32:12;85.63;;;39.47;;
32228;SDS011;18717;48.034;11.186;2024-03-07T06:34:39;81.07;;;38.17;;
32228;SDS011;18717;48.034;11.186;2024-03-07T06:37:07;87.30;;;38.97;;
32228;SDS011;18717;48.034;11.186;2024-03-07T06:39:35;82.78;;;38.13;;
32228;SDS011;18717;48.034;11.186;2024-03-07T06:42:03;86.53;;;38.55;;
32228;SDS011;18717;48.034;11.186;2024-03-07T06:44:32;89.65;;;38.83;;
32228;SDS011;18717;48.034;11.186;2024-03-07T06:46:59;86.20;;;38.97;;
32228;SDS011;18717;48.034;11.186;2024-03-07T06:49:28;72.28;;;36.03;;
32228;SDS011;18717;48.034;11.186;2024-03-07T06:51:56;82.65;;;37.47;;
32228;SDS011;18717;48.034;11.186;2024-03-07T06:54:24;75.20;;;35.00;;
32228;SDS011;18717;48.034;11.186;2024-03-07T06:56:52;72.43;;;35.83;;
32228;SDS011;18717;48.034;11.186;2024-03-07T06:59:20;76.03;;;35.33;;
32228;SDS011;18717;48.034;11.186;2024-03-07T07:01:48;82.57;;;36.45;;
32228;SDS011;18717;48.034;11.186;2024-03-07T07:04:17;76.38;;;38.15;;
32228;SDS011;18717;48.034;11.186;2024-03-07T07:06:47;82.85;;;38.20;;
32228;SDS011;18717;48.034;11.186;2024-03-07T07:09:15;92.20;;;41.08;;
32228;SDS011;18717;48.034;11.186;2024-03-07T07:11:45;82.30;;;37.70;;
32228;SDS011;18717;48.034;11.186;2024-03-07T07:14:13;82.80;;;40.53;;
32228;SDS011;18717;48.034;11.186;2024-03-07T07:16:41;85.63;;;39.72;;
32228;SDS011;18717;48.034;11.186;2024-03-07T07:19:12;91.35;;;42.63;;
32228;SDS011;18717;48.034;11.186;2024-03-07T07:21:40;96.72;;;40.95;;
32228;SDS011;18717;48.034;11.186;2024-03-07T07:24:09;93.53;;;42.95;;
32228;SDS011;18717;48.034;11.186;2024-03-07T07:26:37;92.13;;;42.53;;
32228;SDS011;18717;48.034;11.186;2024-03-07T07:29:05;82.47;;;41.60;;
32228;SDS011;18717;48.034;11.186;2024-03-07T07:31:33;93.38;;;42.30;;
32228;SDS011;18717;48.034;11.186;2024-03-07T07:34:01;90.80;;;40.05;;
32228;SDS011;18717;48.034;11.186;2024-03-07T07:36:30;96.47;;;42.83;;
32228;SDS011;18717;48.034;11.186;2024-03-07T07:38:58;97.30;;;42.90;;
32228;SDS011;18717;48.034;11.186;2024-03-07T07:41:27;96.60;;;42.70;;
32228;SDS011;18717;48.034;11.186;2024-03-07T07:43:56;92.80;;;43.92;;
32228;SDS011;18717;48.034;11.186;2024-03-07T07:46:23;90.68;;;40.33;;
32228;SDS011;18717;48.034;11.186;2024-03-07T07:48:51;86.57;;;42.63;;
32228;SDS011;18717;48.034;11.186;2024-03-07T07:51:19;96.88;;;44.20;;
32228;SDS011;18717;48.034;11.186;2024-03-07T07:53:47;93.10;;;43.17;;
32228;SDS011;18717;48.034;11.186;2024-03-07T07:56:15;89.60;;;43.63;;
32228;SDS011;18717;48.034;11.186;2024-03-07T07:58:44;93.45;;;43.08;;
32228;SDS011;18717;48.034;11.186;2024-03-07T08:01:12;97.78;;;43.42;;
32228;SDS011;18717;48.034;11.186;2024-03-07T08:03:42;90.82;;;43.67;;
32228;SDS011;18717;48.034;11.186;2024-03-07T08:06:10;88.72;;;41.65;;
32228;SDS011;18717;48.034;11.186;2024-03-07T08:08:37;84.72;;;41.45;;
32228;SDS011;18717;48.034;11.186;2024-03-07T08:11:05;92.88;;;41.17;;
32228;SDS011;18717;48.034;11.186;2024-03-07T08:13:34;83.65;;;39.42;;
32228;SDS011;18717;48.034;11.186;2024-03-07T08:16:04;84.70;;;42.10;;
32228;SDS011;18717;48.034;11.186;2024-03-07T08:18:31;87.63;;;40.75;;
32228;SDS011;18717;48.034;11.186;2024-03-07T08:20:59;90.30;;;41.30;;
32228;SDS011;18717;48.034;11.186;2024-03-07T08:23:27;86.93;;;41.70;;
32228;SDS011;18717;48.034;11.186;2024-03-07T08:25:56;93.97;;;42.22;;
32228;SDS011;18717;48.034;11.186;2024-03-07T08:28:24;99.65;;;41.97;;
32228;SDS011;18717;48.034;11.186;2024-03-07T08:30:52;83.57;;;40.70;;
32228;SDS011;18717;48.034;11.186;2024-03-07T08:33:22;100.22;;;42.75;;
32228;SDS011;18717;48.034;11.186;2024-03-07T08:35:50;90.03;;;40.17;;
32228;SDS011;18717;48.034;11.186;2024-03-07T08:38:19;88.50;;;41.75;;
32228;SDS011;18717;48.034;11.186;2024-03-07T08:40:47;93.25;;;41.88;;
32228;SDS011;18717;48.034;11.186;2024-03-07T08:43:15;89.00;;;43.55;;
32228;SDS011;18717;48.034;11.186;2024-03-07T08:45:43;85.15;;;38.78;;
32228;SDS011;18717;48.034;11.186;2024-03-07T08:48:10;89.78;;;42.33;;
32228;SDS011;18717;48.034;11.186;2024-03-07T08:50:41;87.57;;;41.67;;
32228;SDS011;18717;48.034;11.186;2024-03-07T08:53:08;82.75;;;41.00;;
32228;SDS011;18717;48.034;11.186;2024-03-07T08:55:36;89.30;;;40.70;;
32228;SDS011;18717;48.034;11.186;2024-03-07T08:58:04;83.07;;;40.00;;
32228;SDS011;18717;48.034;11.186;2024-03-07T09:00:34;87.68;;;41.97;;
32228;SDS011;18717;48.034;11.186;2024-03-07T09:03:05;98.47;;;42.72;;
32228;SDS011;18717;48.034;11.186;2024-03-07T09:05:37;87.75;;;42.20;;
32228;SDS011;18717;48.034;11.186;2024-03-07T09:08:07;83.70;;;41.55;;
32228;SDS011;18717;48.034;11.186;2024-03-07T09:10:34;83.07;;;40.75;;
32228;SDS011;18717;48.034;11.186;2024-03-07T09:13:02;98.82;;;44.60;;
32228;SDS011;18717;48.034;11.186;2024-03-07T09:15:32;88.47;;;40.38;;
32228;SDS011;18717;48.034;11.186;2024-03-07T09:18:00;96.55;;;44.58;;
32228;SDS011;18717;48.034;11.186;2024-03-07T09:20:30;93.07;;;44.55;;
32228;SDS011;18717;48.034;11.186;2024-03-07T09:22:58;96.80;;;43.95;;
32228;SDS011;18717;48.034;11.186;2024-03-07T09:25:28;106.00;;;44.58;;
32228;SDS011;18717;48.034;11.186;2024-03-07T09:27:59;102.93;;;44.25;;
32228;SDS011;18717;48.034;11.186;2024-03-07T09:30:27;127.53;;;47.47;;
32228;SDS011;18717;48.034;11.186;2024-03-07T09:32:56;106.35;;;43.55;;
32228;SDS011;18717;48.034;11.186;2024-03-07T09:35:24;101.85;;;43.75;;
32228;SDS011;18717;48.034;11.186;2024-03-07T09:37:53;109.43;;;46.83;;
32228;SDS011;18717;48.034;11.186;2024-03-07T09:40:21;109.70;;;42.97;;
32228;SDS011;18717;48.034;11.186;2024-03-07T09:42:55;98.40;;;44.85;;
32228;SDS011;18717;48.034;11.186;2024-03-07T09:45:28;105.65;;;43.13;;
32228;SDS011;18717;48.034;11.186;2024-03-07T09:47:58;116.03;;;46.78;;
32228;SDS011;18717;48.034;11.186;2024-03-07T09:50:25;108.45;;;46.40;;
32228;SDS011;18717;48.034;11.186;2024-03-07T09:52:54;105.00;;;44.35;;
32228;SDS011;18717;48.034;11.186;2024-03-07T09:55:22;108.88;;;45.70;;
32228;SDS011;18717;48.034;11.186;2024-03-07T09:57:54;104.25;;;44.80;;
32228;SDS011;18717;48.034;11.186;2024-03-07T10:00:24;110.90;;;47.45;;
32228;SDS011;18717;48.034;11.186;2024-03-07T10:02:56;102.95;;;46.08;;
32228;SDS011;18717;48.034;11.186;2024-03-07T10:05:26;97.95;;;44.72;;
32228;SDS011;18717;48.034;11.186;2024-03-07T10:07:56;94.97;;;44.58;;
32228;SDS011;18717;48.034;11.186;2024-03-07T10:10:24;101.45;;;46.40;;
32228;SDS011;18717;48.034;11.186;2024-03-07T10:12:52;107.28;;;44.22;;
32228;SDS011;18717;48.034;11.186;2024-03-07T10:15:21;98.90;;;43.63;;
32228;SDS011;18717;48.034;11.186;2024-03-07T10:17:55;98.60;;;46.10;;
32228;SDS011;18717;48.034;11.186;2024-03-07T10:20:23;99.22;;;45.00;;
32228;SDS011;18717;48.034;11.186;2024-03-07T10:22:51;85.15;;;40.75;;
32228;SDS011;18717;48.034;11.186;2024-03-07T10:25:19;97.35;;;45.42;;
32228;SDS011;18717;48.034;11.186;2024-03-07T10:27:51;99.30;;;44.25;;
32228;SDS011;18717;48.034;11.186;2024-03-07T10:30:19;94.30;;;44.53;;
32228;SDS011;18717;48.034;11.186;2024-03-07T10:32:52;95.00;;;41.22;;
32228;SDS011;18717;48.034;11.186;2024-03-07T10:35:24;87.95;;;41.25;;
32228;SDS011;18717;48.034;11.186;2024-03-07T10:37:52;92.72;;;45.30;;
32228;SDS011;18717;48.034;11.186;2024-03-07T10:40:21;88.18;;;41.67;;
32228;SDS011;18717;48.034;11.186;2024-03-07T10:42:49;93.72;;;44.38;;
32228;SDS011;18717;48.034;11.186;2024-03-07T10:45:19;84.72;;;40.47;;
32228;SDS011;18717;48.034;11.186;2024-03-07T10:47:50;84.70;;;42.97;;
32228;SDS011;18717;48.034;11.186;2024-03-07T10:50:30;86.95;;;41.97;;
32228;SDS011;18717;48.034;11.186;2024-03-07T10:53:08;95.95;;;43.65;;
32228;SDS011;18717;48.034;11.186;2024-03-07T10:55:40;91.07;;;43.17;;
32228;SDS011;18717;48.034;11.186;2024-03-07T10:58:24;90.68;;;42.60;;
32228;SDS011;18717;48.034;11.186;2024-03-07T11:00:58;94.22;;;44.22;;
32228;SDS011;18717;48.034;11.186;2024-03-07T11:05:59;98.05;;;44.08;;
32228;SDS011;18717;48.034;11.186;2024-03-07T11:08:32;93.43;;;44.40;;
32228;SDS011;18717;48.034;11.186;2024-03-07T11:11:00;93.47;;;43.55;;
32228;SDS011;18717;48.034;11.186;2024-03-07T11:13:29;95.97;;;44.55;;
32228;SDS011;18717;48.034;11.186;2024-03-07T11:15:58;100.55;;;47.05;;
32228;SDS011;18717;48.034;11.186;2024-03-07T11:18:26;102.47;;;44.80;;
32228;SDS011;18717;48.034;11.186;2024-03-07T11:20:56;87.90;;;42.90;;
32228;SDS011;18717;48.034;11.186;2024-03-07T11:23:24;94.22;;;43.30;;
32228;SDS011;18717;48.034;11.186;2024-03-07T11:25:55;87.82;;;42.70;;
32228;SDS011;18717;48.034;11.186;2024-03-07T11:28:31;85.28;;;40.88;;
32228;SDS011;18717;48.034;11.186;2024-03-07T11:31:12;92.75;;;42.13;;
32228;SDS011;18717;48.034;11.186;2024-03-07T11:36:43;83.60;;;41.20;;
32228;SDS011;18717;48.034;11.186;2024-03-07T11:42:08;84.47;;;39.95;;
32228;SDS011;18717;48.034;11.186;2024-03-07T11:44:36;79.60;;;38.20;;
32228;SDS011;18717;48.034;11.186;2024-03-07T11:47:06;78.60;;;38.60;;
32228;SDS011;18717;48.034;11.186;2024-03-07T11:49:35;85.43;;;44.20;;
32228;SDS011;18717;48.034;11.186;2024-03-07T11:52:05;80.25;;;39.00;;
32228;SDS011;18717;48.034;11.186;2024-03-07T11:54:38;85.28;;;40.53;;
32228;SDS011;18717;48.034;11.186;2024-03-07T11:57:07;72.22;;;37.55;;
32228;SDS011;18717;48.034;11.186;2024-03-07T11:59:39;73.03;;;38.30;;
32228;SDS011;18717;48.034;11.186;2024-03-07T12:02:12;70.15;;;37.35;;
32228;SDS011;18717;48.034;11.186;2024-03-07T12:04:41;70.03;;;35.88;;
32228;SDS011;18717;48.034;11.186;2024-03-07T12:07:10;78.78;;;39.13;;
32228;SDS011;18717;48.034;11.186;2024-03-07T12:09:38;64.22;;;35.45;;
32228;SDS011;18717;48.034;11.186;2024-03-07T12:12:06;68.13;;;36.30;;
32228;SDS011;18717;48.034;11.186;2024-03-07T12:14:35;72.57;;;35.10;;
32228;SDS011;18717;48.034;11.186;2024-03-07T12:17:04;68.07;;;34.88;;
32228;SDS011;18717;48.034;11.186;2024-03-07T12:19:32;68.80;;;35.25;;
32228;SDS011;18717;48.034;11.186;2024-03-07T12:22:00;70.22;;;33.97;;
32228;SDS011;18717;48.034;11.186;2024-03-07T12:24:30;74.47;;;34.53;;
32228;SDS011;18717;48.034;11.186;2024-03-07T12:27:04;65.32;;;34.20;;
32228;SDS011;18717;48.034;11.186;2024-03-07T12:29:33;66.57;;;34.03;;
32228;SDS011;18717;48.034;11.186;2024-03-07T12:32:01;69.22;;;34.10;;
32228;SDS011;18717;48.034;11.186;2024-03-07T12:34:30;66.20;;;34.05;;
32228;SDS011;18717;48.034;11.186;2024-03-07T12:36:58;58.80;;;31.63;;
32228;SDS011;18717;48.034;11.186;2024-03-07T12:39:25;68.88;;;34.83;;
32228;SDS011;18717;48.034;11.186;2024-03-07T12:42:00;63.15;;;33.97;;
32228;SDS011;18717;48.034;11.186;2024-03-07T12:44:38;60.97;;;33.22;;
32228;SDS011;18717;48.034;11.186;2024-03-07T12:47:09;52.60;;;29.17;;
32228;SDS011;18717;48.034;11.186;2024-03-07T12:49:37;60.72;;;32.78;;
32228;SDS011;18717;48.034;11.186;2024-03-07T12:52:05;67.03;;;34.05;;
32228;SDS011;18717;48.034;11.186;2024-03-07T12:54:35;61.13;;;32.55;;
32228;SDS011;18717;48.034;11.186;2024-03-07T12:57:06;57.53;;;32.30;;
32228;SDS011;18717;48.034;11.186;2024-03-07T12:59:35;61.67;;;32.95;;
32228;SDS011;18717;48.034;11.186;2024-03-07T13:02:05;60.03;;;33.20;;
32228;SDS011;18717;48.034;11.186;2024-03-07T13:04:33;58.63;;;32.80;;
32228;SDS011;18717;48.034;11.186;2024-03-07T13:07:06;63.22;;;32.45;;
32228;SDS011;18717;48.034;11.186;2024-03-07T13:09:34;56.38;;;32.58;;
32228;SDS011;18717;48.034;11.186;2024-03-07T13:12:02;58.35;;;33.08;;
32228;SDS011;18717;48.034;11.186;2024-03-07T13:14:37;62.03;;;32.20;;
32228;SDS011;18717;48.034;11.186;2024-03-07T13:17:05;57.78;;;31.75;;
32228;SDS011;18717;48.034;11.186;2024-03-07T13:19:33;55.08;;;31.55;;
32228;SDS011;18717;48.034;11.186;2024-03-07T13:22:02;55.15;;;30.80;;
32228;SDS011;18717;48.034;11.186;2024-03-07T13:24:32;57.30;;;31.45;;
32228;SDS011;18717;48.034;11.186;2024-03-07T13:27:01;56.67;;;31.08;;
32228;SDS011;18717;48.034;11.186;2024-03-07T13:29:29;50.08;;;31.38;;
32228;SDS011;18717;48.034;11.186;2024-03-07T13:31:58;50.60;;;29.35;;
32228;SDS011;18717;48.034;11.186;2024-03-07T13:34:26;51.28;;;28.52;;
32228;SDS011;18717;48.034;11.186;2024-03-07T13:36:55;50.47;;;29.45;;
32228;SDS011;18717;48.034;11.186;2024-03-07T13:39:24;52.40;;;29.60;;
32228;SDS011;18717;48.034;11.186;2024-03-07T13:41:52;47.45;;;29.08;;
32228;SDS011;18717;48.034;11.186;2024-03-07T13:44:20;45.05;;;28.00;;
32228;SDS011;18717;48.034;11.186;2024-03-07T13:46:50;53.55;;;28.23;;
32228;SDS011;18717;48.034;11.186;2024-03-07T13:49:20;50.38;;;27.77;;
32228;SDS011;18717;48.034;11.186;2024-03-07T13:51:50;41.17;;;26.17;;
32228;SDS011;18717;48.034;11.186;2024-03-07T13:54:19;43.15;;;26.05;;
32228;SDS011;18717;48.034;11.186;2024-03-07T13:57:06;45.15;;;25.85;;
32228;SDS011;18717;48.034;11.186;2024-03-07T13:59:45;47.83;;;26.27;;
32228;SDS011;18717;48.034;11.186;2024-03-07T14:02:41;46.15;;;27.35;;
32228;SDS011;18717;48.034;11.186;2024-03-07T14:05:44;45.00;;;26.10;;
32228;SDS011;18717;48.034;11.186;2024-03-07T14:08:31;49.53;;;27.13;;
32228;SDS011;18717;48.034;11.186;2024-03-07T14:11:26;46.75;;;28.67;;
32228;SDS011;18717;48.034;11.186;2024-03-07T14:17:32;48.28;;;28.13;;
32228;SDS011;18717;48.034;11.186;2024-03-07T14:23:38;40.78;;;24.67;;
32228;SDS011;18717;48.034;11.186;2024-03-07T14:29:02;43.33;;;25.48;;
32228;SDS011;18717;48.034;11.186;2024-03-07T14:31:39;45.97;;;25.90;;
32228;SDS011;18717;48.034;11.186;2024-03-07T14:34:09;41.33;;;25.17;;
32228;SDS011;18717;48.034;11.186;2024-03-07T14:36:41;42.03;;;26.33;;
32228;SDS011;18717;48.034;11.186;2024-03-07T14:39:13;46.08;;;26.05;;
32228;SDS011;18717;48.034;11.186;2024-03-07T14:41:49;39.08;;;26.10;;